08:14
Airports
History
Links
Donate
Help keep this website running!
PayPal
Bitcoin
Information on this page is community maintained and may be outdated or inaccurate and is intended for reference only or PC simulator navigating!
Always use approved charts for navigating.
I89
Fayette
Fayette (I89)
Fayetteville, West Virginia, United States (25840)
(U)
Lat/Lng:38° 1' 36.4" N / 81° 7' 11.37" W
38.026778 / -81.119824
Elevation:1960'ft 597mMSL
ID / ICAO:I89
Runways:1
Longest:(03-21) 611.5m 2,006ft Asphalt
Distance To
Airport ID:
Nearby VORs <50NM
Nearby NDBs
Nearby WeatherUpdated 03-28-17 07:51 GMT
Nearby weather at KBKW, Raleigh County Memorial located 16.5 nautical miles from I89
Altimeter: 29.88
Visibility: 10.0 statute miles
Wind: 5 knots (170°)
Temp: 12°c 54°f
Humidity: 87.6%

METAR: KBKW 280751Z AUTO 17005KT 10SM FEW075 BKN110 12/10 A2988 RMK AO2 SLP098 T01170100

(Powered by phpweather)
Runway 03 / 21
Dimensions:611.5 x 6.1m 2006' x 20'ft
Surface:Asphalt
Edge Lights:Medium intensity
Runway 03 [A]Runway 21 [B]
Heading:024°TH 204°TH
Lat:
Lng:
38° 1' 27.33"N
81° 7' 16.49"W
38° 1' 45.47"N
81° 7' 6.24"W
ALS:RAIL
Google Map
Nearby Airports
(R) New River Gorge 5.2 NM
WV32 NE 34°
(R) Lee Massey 7.9 NM
WV01 NNE 26°
(U) Raleigh County Memorial 16.5 NM
KBKW (WX) S 180°
(U) Summersville 19.6 NM
KSXL NE 43°
(R) Rainelle 22.6 NM
WV30 ESE 103°
4 Rainelle 22.6 NM
9W4 ESE 103°
(R) Island 26.0 NM
WV08 WNW 300°
VFR Chart
Flight Planning at SkyVector.com